createdAt,value
2017-11-29T00:00:02.589Z,20.08
2017-11-29T00:00:15.259Z,20.1
2017-11-29T00:00:28.356Z,20.08
2017-11-29T00:00:41.531Z,20.08
2017-11-29T00:00:54.669Z,20.08
2017-11-29T00:01:07.845Z,20.08
2017-11-29T00:01:20.716Z,20.07
2017-11-29T00:01:33.858Z,20.1
2017-11-29T00:01:46.994Z,20.05
2017-11-29T00:01:59.611Z,20.05
2017-11-29T00:02:12.250Z,20.08
2017-11-29T00:02:25.466Z,20.1
2017-11-29T00:02:38.625Z,20.1
2017-11-29T00:02:51.314Z,20.15
2017-11-29T00:03:03.948Z,20.11
2017-11-29T00:03:17.059Z,20.08
2017-11-29T00:03:29.684Z,20.08
2017-11-29T00:03:42.276Z,20.1
2017-11-29T00:03:54.935Z,20.07
2017-11-29T00:04:07.565Z,20.08
2017-11-29T00:04:20.629Z,20.08
2017-11-29T00:04:33.255Z,20.07
2017-11-29T00:04:46.381Z,20.16
2017-11-29T00:04:59.528Z,20.1
2017-11-29T00:05:12.244Z,20.11
2017-11-29T00:05:25.368Z,20.15
2017-11-29T00:05:38.500Z,20.1
2017-11-29T00:05:51.172Z,20.1
2017-11-29T00:06:04.353Z,20.12
2017-11-29T00:06:17.439Z,20.19
2017-11-29T00:06:30.846Z,20.11
2017-11-29T00:06:43.485Z,20.11
2017-11-29T00:06:56.592Z,20.1
2017-11-29T00:07:08.724Z,20.08
2017-11-29T00:07:21.400Z,20.08
2017-11-29T00:07:34.586Z,20.11
2017-11-29T00:07:47.247Z,20.05
2017-11-29T00:08:00.396Z,20.04
2017-11-29T00:08:13.042Z,20.05
2017-11-29T00:08:26.138Z,20.08
2017-11-29T00:08:38.793Z,20.08
2017-11-29T00:08:51.886Z,20.04
2017-11-29T00:09:05.044Z,20.05
2017-11-29T00:09:18.169Z,20.15
2017-11-29T00:09:31.254Z,20.08
2017-11-29T00:09:44.457Z,20.02
2017-11-29T00:09:57.583Z,20.1
2017-11-29T00:10:10.219Z,20.08
2017-11-29T00:10:22.893Z,20.04
2017-11-29T00:10:36.640Z,20.1
2017-11-29T00:10:49.726Z,20.01
2017-11-29T00:11:02.828Z,20.07
2017-11-29T00:11:14.992Z,20.07
2017-11-29T00:11:28.134Z,20.07
2017-11-29T00:11:41.285Z,20.05
2017-11-29T00:11:54.416Z,20
2017-11-29T00:12:07.484Z,19.98
2017-11-29T00:12:19.669Z,19.92
2017-11-29T00:12:32.830Z,20.07
2017-11-29T00:12:45.959Z,19.95
2017-11-29T00:12:59.234Z,19.98
2017-11-29T00:13:11.920Z,19.95
2017-11-29T00:13:25.078Z,19.98
2017-11-29T00:13:38.387Z,19.95
2017-11-29T00:13:51.496Z,19.97
2017-11-29T00:14:04.658Z,19.98
2017-11-29T00:14:16.830Z,20.01
2017-11-29T00:14:29.989Z,19.98
2017-11-29T00:14:43.069Z,19.97
2017-11-29T00:14:56.224Z,19.92
2017-11-29T00:15:08.876Z,19.95
2017-11-29T00:15:22.027Z,19.98
2017-11-29T00:15:35.226Z,20.01
2017-11-29T00:15:48.572Z,19.93
2017-11-29T00:16:01.700Z,19.95
2017-11-29T00:16:13.892Z,19.95
2017-11-29T00:16:26.057Z,19.92
2017-11-29T00:16:38.638Z,19.92
2017-11-29T00:16:51.291Z,19.92
2017-11-29T00:17:04.467Z,19.9
2017-11-29T00:17:17.572Z,19.92
2017-11-29T00:17:30.205Z,19.93
2017-11-29T00:17:43.335Z,19.93
2017-11-29T00:17:56.530Z,19.95
2017-11-29T00:18:09.661Z,19.93
2017-11-29T00:18:22.847Z,19.92
2017-11-29T00:18:35.456Z,19.95
2017-11-29T00:18:47.638Z,19.97
2017-11-29T00:19:00.763Z,19.93
2017-11-29T00:19:13.909Z,19.97
2017-11-29T00:19:27.013Z,19.92
2017-11-29T00:19:40.091Z,19.95
2017-11-29T00:19:52.259Z,19.98
2017-11-29T00:20:05.329Z,19.92
2017-11-29T00:20:18.471Z,19.97
2017-11-29T00:20:31.693Z,19.97
2017-11-29T00:20:44.808Z,19.93
2017-11-29T00:20:57.918Z,19.95
2017-11-29T00:21:10.586Z,19.97
2017-11-29T00:21:24.362Z,19.87
2017-11-29T00:21:37.491Z,19.93
2017-11-29T00:21:50.676Z,19.95
2017-11-29T00:22:03.794Z,19.97
2017-11-29T00:22:16.422Z,19.93
2017-11-29T00:22:29.588Z,19.95
2017-11-29T00:22:42.733Z,19.98
2017-11-29T00:22:55.392Z,19.9
2017-11-29T00:23:08.514Z,19.95
2017-11-29T00:23:21.598Z,19.95
2017-11-29T00:23:34.241Z,19.97
2017-11-29T00:23:47.383Z,19.98
2017-11-29T00:24:00.563Z,19.95
2017-11-29T00:24:13.202Z,19.93
2017-11-29T00:24:25.810Z,19.97
2017-11-29T00:24:38.943Z,20
2017-11-29T00:24:51.562Z,19.93
2017-11-29T00:25:04.661Z,19.95
2017-11-29T00:25:17.799Z,19.93
2017-11-29T00:25:30.970Z,19.95
2017-11-29T00:25:43.609Z,19.87
2017-11-29T00:25:56.750Z,19.97
2017-11-29T00:26:09.864Z,19.92
2017-11-29T00:26:23.041Z,19.95
2017-11-29T00:26:36.201Z,19.97
2017-11-29T00:26:49.332Z,19.93
2017-11-29T00:27:01.976Z,19.97
2017-11-29T00:27:15.112Z,19.92
2017-11-29T00:27:27.876Z,19.92
2017-11-29T00:27:40.972Z,19.92
2017-11-29T00:27:54.026Z,19.92
2017-11-29T00:28:07.172Z,19.98
2017-11-29T00:28:20.221Z,19.98
2017-11-29T00:28:33.313Z,19.93
2017-11-29T00:28:46.497Z,20
2017-11-29T00:28:59.632Z,19.98
2017-11-29T00:29:12.551Z,20.01
2017-11-29T00:29:25.711Z,19.97
2017-11-29T00:29:38.805Z,19.98
2017-11-29T00:29:51.433Z,19.93
2017-11-29T00:30:04.106Z,19.95
2017-11-29T00:30:17.246Z,19.93
2017-11-29T00:30:30.316Z,19.93
2017-11-29T00:30:42.968Z,19.95
2017-11-29T00:30:56.167Z,19.95
2017-11-29T00:31:09.259Z,19.97
2017-11-29T00:31:22.389Z,19.89
2017-11-29T00:31:35.736Z,19.95
2017-11-29T00:31:48.863Z,19.95
2017-11-29T00:32:02.037Z,19.86
2017-11-29T00:32:15.183Z,19.95
2017-11-29T00:32:28.335Z,19.8
2017-11-29T00:32:41.467Z,19.93
2017-11-29T00:32:54.550Z,19.87
2017-11-29T00:33:07.733Z,19.85
2017-11-29T00:33:20.893Z,19.86
2017-11-29T00:33:34.008Z,19.87
2017-11-29T00:33:47.140Z,19.85
2017-11-29T00:34:00.255Z,19.82
2017-11-29T00:34:13.311Z,19.89
2017-11-29T00:34:26.414Z,19.86
2017-11-29T00:34:39.560Z,19.86
2017-11-29T00:34:52.233Z,19.83
2017-11-29T00:35:04.891Z,19.82
2017-11-29T00:35:18.006Z,19.78
2017-11-29T00:35:30.613Z,19.75
2017-11-29T00:35:43.753Z,19.72
2017-11-29T00:35:56.890Z,19.71
2017-11-29T00:36:10.030Z,19.68
2017-11-29T00:36:22.709Z,19.71
2017-11-29T00:36:35.636Z,19.74
2017-11-29T00:36:48.767Z,19.71
2017-11-29T00:37:01.864Z,19.71
2017-11-29T00:37:15.009Z,19.71
2017-11-29T00:37:27.652Z,19.72
2017-11-29T00:37:40.272Z,19.68
2017-11-29T00:37:53.398Z,19.72
2017-11-29T00:38:06.479Z,19.72
2017-11-29T00:38:19.677Z,19.71
2017-11-29T00:38:32.752Z,19.72
2017-11-29T00:38:44.938Z,19.79
2017-11-29T00:38:58.084Z,19.67
2017-11-29T00:39:10.763Z,19.74
2017-11-29T00:39:23.411Z,19.71
2017-11-29T00:39:36.593Z,19.74
2017-11-29T00:39:49.728Z,19.79
2017-11-29T00:40:02.821Z,19.74
2017-11-29T00:40:15.992Z,19.78
2017-11-29T00:40:28.653Z,19.79
2017-11-29T00:40:41.755Z,19.71
2017-11-29T00:40:54.962Z,19.71
2017-11-29T00:41:07.582Z,19.7
2017-11-29T00:41:20.701Z,19.7
2017-11-29T00:41:33.797Z,19.72
2017-11-29T00:41:46.959Z,19.71
2017-11-29T00:42:00.116Z,19.72
2017-11-29T00:42:13.241Z,19.71
2017-11-29T00:42:25.924Z,19.71
2017-11-29T00:42:39.052Z,19.71
2017-11-29T00:42:52.191Z,19.72
2017-11-29T00:43:05.343Z,19.74
2017-11-29T00:43:18.437Z,19.71
2017-11-29T00:43:31.597Z,19.7
2017-11-29T00:43:44.757Z,19.71
2017-11-29T00:43:57.836Z,19.71
2017-11-29T00:44:11.018Z,19.71
2017-11-29T00:44:23.658Z,19.71
2017-11-29T00:44:36.786Z,19.7
2017-11-29T00:44:49.931Z,19.7
2017-11-29T00:45:02.996Z,19.79
2017-11-29T00:45:16.130Z,19.7
2017-11-29T00:45:28.790Z,19.7
2017-11-29T00:45:41.938Z,19.7
2017-11-29T00:45:55.104Z,19.7
2017-11-29T00:46:07.714Z,19.68
2017-11-29T00:46:20.832Z,19.75
2017-11-29T00:46:33.969Z,19.68
2017-11-29T00:46:47.084Z,19.65
2017-11-29T00:46:59.703Z,19.65
2017-11-29T00:47:12.832Z,19.7
2017-11-29T00:47:25.895Z,19.71
2017-11-29T00:47:38.570Z,19.71
2017-11-29T00:47:51.704Z,19.68
2017-11-29T00:48:04.864Z,19.7
2017-11-29T00:48:17.473Z,19.65
2017-11-29T00:48:30.113Z,19.7
2017-11-29T00:48:43.261Z,19.64
2017-11-29T00:48:56.382Z,19.71
2017-11-29T00:49:08.964Z,19.68
2017-11-29T00:49:22.169Z,19.67
2017-11-29T00:49:35.385Z,19.67
2017-11-29T00:49:48.041Z,19.71
2017-11-29T00:50:00.733Z,19.7
2017-11-29T00:50:13.914Z,19.67
2017-11-29T00:50:27.026Z,19.7
2017-11-29T00:50:39.671Z,19.68
2017-11-29T00:50:51.887Z,19.63
2017-11-29T00:51:04.990Z,19.63
2017-11-29T00:51:18.132Z,19.64
2017-11-29T00:51:30.792Z,19.65
2017-11-29T00:51:44.613Z,19.61
2017-11-29T00:51:57.269Z,19.61
2017-11-29T00:52:09.897Z,19.64
2017-11-29T00:52:23.000Z,19.56
2017-11-29T00:52:35.652Z,19.7
2017-11-29T00:52:48.774Z,19.65
2017-11-29T00:53:01.442Z,19.68
2017-11-29T00:53:14.082Z,19.68
2017-11-29T00:53:27.246Z,19.65
2017-11-29T00:53:40.372Z,19.67
2017-11-29T00:53:52.978Z,19.68
2017-11-29T00:54:06.073Z,19.7
2017-11-29T00:54:19.165Z,19.65
2017-11-29T00:54:32.288Z,19.64
2017-11-29T00:54:45.415Z,19.61
2017-11-29T00:54:58.040Z,19.63
2017-11-29T00:55:10.707Z,19.67
2017-11-29T00:55:23.885Z,19.64
2017-11-29T00:55:37.057Z,19.6
2017-11-29T00:55:50.204Z,19.65
2017-11-29T00:56:03.339Z,19.63
2017-11-29T00:56:16.429Z,19.61
2017-11-29T00:56:29.028Z,19.63
2017-11-29T00:56:41.721Z,19.7
2017-11-29T00:56:54.394Z,19.63
2017-11-29T00:57:07.460Z,19.7
2017-11-29T00:57:20.545Z,19.63
2017-11-29T00:57:33.714Z,19.68
2017-11-29T00:57:46.877Z,19.65
2017-11-29T00:57:59.986Z,19.64
2017-11-29T00:58:13.130Z,19.61
2017-11-29T00:58:25.803Z,19.65
2017-11-29T00:58:38.986Z,19.61
2017-11-29T00:58:52.147Z,19.68
2017-11-29T00:59:05.247Z,19.64
2017-11-29T00:59:18.395Z,19.57
2017-11-29T00:59:31.522Z,19.68
2017-11-29T00:59:44.709Z,19.74
2017-11-29T00:59:57.833Z,19.65
2017-11-29T01:00:10.499Z,19.65
2017-11-29T01:00:23.611Z,19.68
2017-11-29T01:00:36.800Z,19.64
2017-11-29T01:00:50.000Z,19.65
2017-11-29T01:01:03.116Z,19.63
2017-11-29T01:01:16.216Z,19.67
2017-11-29T01:01:28.875Z,19.68
2017-11-29T01:01:42.241Z,19.63
2017-11-29T01:01:54.952Z,19.61
2017-11-29T01:02:08.048Z,19.63
2017-11-29T01:02:21.152Z,19.7
2017-11-29T01:02:34.312Z,19.65
2017-11-29T01:02:46.991Z,19.67
2017-11-29T01:03:00.115Z,19.65
2017-11-29T01:03:12.744Z,19.6
2017-11-29T01:03:25.828Z,19.64
2017-11-29T01:03:39.052Z,19.61
2017-11-29T01:03:52.159Z,19.64
2017-11-29T01:04:04.830Z,19.63
2017-11-29T01:04:18.026Z,19.63
2017-11-29T01:04:30.762Z,19.61
2017-11-29T01:04:43.961Z,19.57
2017-11-29T01:04:56.622Z,19.57
2017-11-29T01:05:09.291Z,19.56
2017-11-29T01:05:22.437Z,19.6
2017-11-29T01:05:35.606Z,19.56
2017-11-29T01:05:48.803Z,19.6
2017-11-29T01:06:02.052Z,19.53
2017-11-29T01:06:14.254Z,19.53
2017-11-29T01:06:27.403Z,19.56
2017-11-29T01:06:40.529Z,19.55
2017-11-29T01:06:53.540Z,19.57
2017-11-29T01:07:06.198Z,19.55
2017-11-29T01:07:19.342Z,19.65
2017-11-29T01:07:32.557Z,19.55
2017-11-29T01:07:45.681Z,19.63
2017-11-29T01:07:58.850Z,19.67
2017-11-29T01:08:11.521Z,19.64
2017-11-29T01:08:24.696Z,19.64
2017-11-29T01:08:37.865Z,19.6
2017-11-29T01:08:51.001Z,19.57
2017-11-29T01:09:04.140Z,19.57
2017-11-29T01:09:17.252Z,19.63
2017-11-29T01:09:30.443Z,19.56
2017-11-29T01:09:43.508Z,19.53
2017-11-29T01:09:56.128Z,19.52
2017-11-29T01:10:08.806Z,19.53
2017-11-29T01:10:21.916Z,19.56
2017-11-29T01:10:34.558Z,19.55
2017-11-29T01:10:47.692Z,19.55
2017-11-29T01:11:00.871Z,19.57
2017-11-29T01:11:13.986Z,19.53
2017-11-29T01:11:26.656Z,19.52
2017-11-29T01:11:38.784Z,19.67
2017-11-29T01:11:51.909Z,19.55
2017-11-29T01:12:05.094Z,19.6
2017-11-29T01:12:17.702Z,19.6
2017-11-29T01:12:30.380Z,19.67
2017-11-29T01:12:43.531Z,19.6
2017-11-29T01:12:56.621Z,19.68
2017-11-29T01:13:09.721Z,19.64
2017-11-29T01:13:22.803Z,19.6
2017-11-29T01:13:35.477Z,19.61
2017-11-29T01:13:48.658Z,19.57
2017-11-29T01:14:01.819Z,19.57
2017-11-29T01:14:13.976Z,19.64
2017-11-29T01:14:27.105Z,19.53
2017-11-29T01:14:40.195Z,19.67
2017-11-29T01:14:52.868Z,19.6
2017-11-29T01:15:06.054Z,19.65
2017-11-29T01:15:18.748Z,19.53
2017-11-29T01:15:31.866Z,19.57
2017-11-29T01:15:44.525Z,19.53
2017-11-29T01:15:57.687Z,19.53
2017-11-29T01:16:10.292Z,19.61
2017-11-29T01:16:23.460Z,19.6
2017-11-29T01:16:36.563Z,19.55
2017-11-29T01:16:49.236Z,19.6
2017-11-29T01:17:02.324Z,19.5
2017-11-29T01:17:15.514Z,19.55
2017-11-29T01:17:28.137Z,19.56
2017-11-29T01:17:41.218Z,19.52
2017-11-29T01:17:54.379Z,19.47
2017-11-29T01:18:07.048Z,19.47
2017-11-29T01:18:19.701Z,19.46
2017-11-29T01:18:32.836Z,19.45
2017-11-29T01:18:45.444Z,19.47
2017-11-29T01:18:58.569Z,19.47
2017-11-29T01:19:11.241Z,19.5
2017-11-29T01:19:24.377Z,19.52
2017-11-29T01:19:37.538Z,19.47
2017-11-29T01:19:50.180Z,19.5
2017-11-29T01:20:03.307Z,19.47
2017-11-29T01:20:16.015Z,19.43
2017-11-29T01:20:29.117Z,19.43
2017-11-29T01:20:42.254Z,19.46
2017-11-29T01:20:54.925Z,19.38
2017-11-29T01:21:08.105Z,19.5
2017-11-29T01:21:20.276Z,19.38
2017-11-29T01:21:32.442Z,19.49
2017-11-29T01:21:45.100Z,19.46
2017-11-29T01:21:58.465Z,19.46
2017-11-29T01:22:11.599Z,19.42
2017-11-29T01:22:24.751Z,19.43
2017-11-29T01:22:37.922Z,19.42
2017-11-29T01:22:51.097Z,19.4
2017-11-29T01:23:03.734Z,19.45
2017-11-29T01:23:16.863Z,19.38
2017-11-29T01:23:29.991Z,19.43
2017-11-29T01:23:43.076Z,19.42
2017-11-29T01:23:56.201Z,19.43
2017-11-29T01:24:09.329Z,19.5
2017-11-29T01:24:22.509Z,19.4
2017-11-29T01:24:35.570Z,19.4
2017-11-29T01:24:48.195Z,19.34
2017-11-29T01:25:01.292Z,19.45
2017-11-29T01:25:14.400Z,19.55
2017-11-29T01:25:27.493Z,19.46
2017-11-29T01:25:40.184Z,19.47
2017-11-29T01:25:52.851Z,19.5
2017-11-29T01:26:05.971Z,19.43
2017-11-29T01:26:19.085Z,19.45
2017-11-29T01:26:31.790Z,19.46
2017-11-29T01:26:44.987Z,19.47
2017-11-29T01:26:57.625Z,19.38
2017-11-29T01:27:10.729Z,19.43
2017-11-29T01:27:23.879Z,19.43
2017-11-29T01:27:36.982Z,19.42
2017-11-29T01:27:50.108Z,19.37
2017-11-29T01:28:02.819Z,19.4
2017-11-29T01:28:15.926Z,19.43
2017-11-29T01:28:29.075Z,19.4
2017-11-29T01:28:42.160Z,19.45
2017-11-29T01:28:55.246Z,19.47
2017-11-29T01:29:08.384Z,19.38
2017-11-29T01:29:21.555Z,19.46
2017-11-29T01:29:34.246Z,19.27
2017-11-29T01:29:46.912Z,19.43
2017-11-29T01:30:00.048Z,19.35
2017-11-29T01:30:12.710Z,19.4
2017-11-29T01:30:25.849Z,19.42
2017-11-29T01:30:38.493Z,19.34
2017-11-29T01:30:51.626Z,19.45
2017-11-29T01:31:04.735Z,19.35
2017-11-29T01:31:17.883Z,19.42
2017-11-29T01:31:30.957Z,19.34
2017-11-29T01:31:43.583Z,19.37
2017-11-29T01:31:56.507Z,19.42
2017-11-29T01:32:09.706Z,19.34
2017-11-29T01:32:22.817Z,19.38
2017-11-29T01:32:35.957Z,19.37
2017-11-29T01:32:49.119Z,19.34
2017-11-29T01:33:02.286Z,19.23
2017-11-29T01:33:14.938Z,19.23
2017-11-29T01:33:28.067Z,19.31
2017-11-29T01:33:41.245Z,19.28
2017-11-29T01:33:54.353Z,19.25
2017-11-29T01:34:07.453Z,19.32
2017-11-29T01:34:20.601Z,19.2
2017-11-29T01:34:33.772Z,19.2
2017-11-29T01:34:46.930Z,19.28
2017-11-29T01:35:00.092Z,19.28
2017-11-29T01:35:13.243Z,19.23
2017-11-29T01:35:26.366Z,19.19
2017-11-29T01:35:39.039Z,19.2
2017-11-29T01:35:52.195Z,19.19
2017-11-29T01:36:05.316Z,19.23
2017-11-29T01:36:18.472Z,19.23
2017-11-29T01:36:31.619Z,19.16
2017-11-29T01:36:44.689Z,19.16
2017-11-29T01:36:58.596Z,19.13
2017-11-29T01:37:11.690Z,19.23
2017-11-29T01:37:24.345Z,19.12
2017-11-29T01:37:37.461Z,19.19
2017-11-29T01:37:50.589Z,19.12
2017-11-29T01:38:03.690Z,19.17
2017-11-29T01:38:16.327Z,19.12
2017-11-29T01:38:29.480Z,19.16
2017-11-29T01:38:42.576Z,19.02
2017-11-29T01:38:55.233Z,19.07
2017-11-29T01:39:08.366Z,19.16
2017-11-29T01:39:21.516Z,19.13
2017-11-29T01:39:34.672Z,19.16
2017-11-29T01:39:47.798Z,19.09
2017-11-29T01:40:00.941Z,19.16
2017-11-29T01:40:13.609Z,19.07
2017-11-29T01:40:26.284Z,19.05
2017-11-29T01:40:38.943Z,19.13
2017-11-29T01:40:52.059Z,19.12
2017-11-29T01:41:05.252Z,19.06
2017-11-29T01:41:18.386Z,19.12
2017-11-29T01:41:31.472Z,19.12
2017-11-29T01:41:44.605Z,19.15
2017-11-29T01:41:57.725Z,19.07
2017-11-29T01:42:10.389Z,19.09
2017-11-29T01:42:23.464Z,19.05
2017-11-29T01:42:36.543Z,19.07
2017-11-29T01:42:49.208Z,19.07
2017-11-29T01:43:01.905Z,19.07
2017-11-29T01:43:15.033Z,19
2017-11-29T01:43:28.278Z,19.05
2017-11-29T01:43:40.978Z,18.94
2017-11-29T01:43:54.138Z,19.05
2017-11-29T01:44:07.266Z,19.06
2017-11-29T01:44:20.351Z,19.09
2017-11-29T01:44:33.455Z,19.15
2017-11-29T01:44:46.136Z,19.05
2017-11-29T01:44:58.827Z,18.99
2017-11-29T01:45:11.963Z,19.02
2017-11-29T01:45:25.044Z,19.06
2017-11-29T01:45:38.133Z,18.93
2017-11-29T01:45:50.774Z,19.09
2017-11-29T01:46:03.880Z,19.09
2017-11-29T01:46:16.510Z,18.93
2017-11-29T01:46:29.651Z,18.97
2017-11-29T01:46:42.336Z,19.09
2017-11-29T01:46:55.504Z,19.1
2017-11-29T01:47:08.583Z,19.05
2017-11-29T01:47:21.682Z,19.05
2017-11-29T01:47:34.784Z,19.09
2017-11-29T01:47:47.900Z,18.96
2017-11-29T01:48:01.031Z,18.99
2017-11-29T01:48:14.164Z,19
2017-11-29T01:48:27.331Z,19.05
2017-11-29T01:48:40.447Z,19.05
2017-11-29T01:48:53.531Z,19
2017-11-29T01:49:06.708Z,19.02
2017-11-29T01:49:19.864Z,18.96
2017-11-29T01:49:32.986Z,19
2017-11-29T01:49:46.098Z,18.97
2017-11-29T01:49:59.257Z,19.07
2017-11-29T01:50:11.879Z,19.05
2017-11-29T01:50:25.017Z,19.12
2017-11-29T01:50:37.710Z,18.99
2017-11-29T01:50:50.846Z,19.02
2017-11-29T01:51:04.000Z,19
2017-11-29T01:51:17.181Z,19.02
2017-11-29T01:51:30.251Z,18.99
2017-11-29T01:51:43.671Z,19.02
2017-11-29T01:51:56.332Z,19.05
2017-11-29T01:52:10.264Z,18.97
2017-11-29T01:52:23.451Z,19.06
2017-11-29T01:52:36.688Z,19.02
2017-11-29T01:52:49.888Z,18.96
2017-11-29T01:53:03.052Z,19.07
2017-11-29T01:53:16.133Z,18.87
2017-11-29T01:53:29.297Z,19
2017-11-29T01:53:42.457Z,18.97
2017-11-29T01:53:55.615Z,18.96
2017-11-29T01:54:08.289Z,18.96
2017-11-29T01:54:20.991Z,18.94
2017-11-29T01:54:34.206Z,18.87
2017-11-29T01:54:46.838Z,18.94
2017-11-29T01:55:00.022Z,19
2017-11-29T01:55:13.140Z,18.99
2017-11-29T01:55:26.279Z,18.93
2017-11-29T01:55:38.431Z,19.05
2017-11-29T01:55:51.564Z,18.96
2017-11-29T01:56:04.666Z,19.05
2017-11-29T01:56:17.385Z,18.97
2017-11-29T01:56:30.545Z,18.94
2017-11-29T01:56:43.657Z,18.93
2017-11-29T01:56:56.782Z,18.9
2017-11-29T01:57:09.897Z,18.96
2017-11-29T01:57:23.043Z,18.96
2017-11-29T01:57:36.188Z,18.99
2017-11-29T01:57:49.309Z,18.93
2017-11-29T01:58:02.042Z,18.99
2017-11-29T01:58:15.207Z,18.93
2017-11-29T01:58:28.393Z,18.9
2017-11-29T01:58:41.557Z,18.93
2017-11-29T01:58:54.655Z,19
2017-11-29T01:59:07.780Z,18.97
2017-11-29T01:59:20.935Z,18.9
2017-11-29T01:59:34.060Z,18.93
2017-11-29T01:59:47.210Z,18.94
2017-11-29T02:00:00.349Z,18.96
2017-11-29T02:00:13.466Z,19
2017-11-29T02:00:26.099Z,18.9
2017-11-29T02:00:39.224Z,18.91
2017-11-29T02:00:52.347Z,18.91
2017-11-29T02:01:05.069Z,18.89
2017-11-29T02:01:17.714Z,18.96
2017-11-29T02:01:30.379Z,18.9
2017-11-29T02:01:43.450Z,18.84
2017-11-29T02:01:56.555Z,18.91
2017-11-29T02:02:09.429Z,18.86
2017-11-29T02:02:22.549Z,18.96
2017-11-29T02:02:35.273Z,18.91
2017-11-29T02:02:48.348Z,18.9
2017-11-29T02:03:01.049Z,18.87
2017-11-29T02:03:14.172Z,18.94
2017-11-29T02:03:27.293Z,18.82
2017-11-29T02:03:40.423Z,18.89
2017-11-29T02:03:53.617Z,18.84
2017-11-29T02:04:05.779Z,18.84
2017-11-29T02:04:17.982Z,18.84
2017-11-29T02:04:31.155Z,18.82
2017-11-29T02:04:44.329Z,18.86
2017-11-29T02:04:57.436Z,18.81
2017-11-29T02:05:10.078Z,18.87
2017-11-29T02:05:23.244Z,18.86
2017-11-29T02:05:36.433Z,18.78
2017-11-29T02:05:49.572Z,18.84
2017-11-29T02:06:02.285Z,18.86
2017-11-29T02:06:15.422Z,18.81
2017-11-29T02:06:28.077Z,18.81
2017-11-29T02:06:41.205Z,18.76
2017-11-29T02:06:54.375Z,18.84
2017-11-29T02:07:07.479Z,18.79
2017-11-29T02:07:20.739Z,18.81
2017-11-29T02:07:33.933Z,18.86
2017-11-29T02:07:47.098Z,18.75
2017-11-29T02:07:59.805Z,18.76
2017-11-29T02:08:12.962Z,18.81
2017-11-29T02:08:26.090Z,18.82
2017-11-29T02:08:39.256Z,18.84
2017-11-29T02:08:51.921Z,18.78
2017-11-29T02:09:05.034Z,18.84
2017-11-29T02:09:17.739Z,18.81
2017-11-29T02:09:30.372Z,18.66
2017-11-29T02:09:43.476Z,18.81
2017-11-29T02:09:56.644Z,18.79
2017-11-29T02:10:09.728Z,18.68
2017-11-29T02:10:22.381Z,18.71
2017-11-29T02:10:35.023Z,18.66
2017-11-29T02:10:47.689Z,18.78
2017-11-29T02:11:00.783Z,18.69
2017-11-29T02:11:13.467Z,18.78
2017-11-29T02:11:26.571Z,18.76
2017-11-29T02:11:39.630Z,18.66
2017-11-29T02:11:52.314Z,18.81
2017-11-29T02:12:05.398Z,18.79
2017-11-29T02:12:18.659Z,18.78
2017-11-29T02:12:31.752Z,18.72
2017-11-29T02:12:44.829Z,18.66
2017-11-29T02:12:57.997Z,18.69
2017-11-29T02:13:10.636Z,18.68
2017-11-29T02:13:23.772Z,18.72
2017-11-29T02:13:36.457Z,18.66
2017-11-29T02:13:49.565Z,18.69
2017-11-29T02:14:02.641Z,18.68
2017-11-29T02:14:15.802Z,18.68
2017-11-29T02:14:28.887Z,18.71
2017-11-29T02:14:42.047Z,18.69
2017-11-29T02:14:55.133Z,18.68
2017-11-29T02:15:07.751Z,18.68
2017-11-29T02:15:20.929Z,18.76
2017-11-29T02:15:34.094Z,18.74
2017-11-29T02:15:46.732Z,18.68
2017-11-29T02:15:59.881Z,18.75
2017-11-29T02:16:12.506Z,18.69
2017-11-29T02:16:25.602Z,18.74
2017-11-29T02:16:38.684Z,18.69
2017-11-29T02:16:51.856Z,18.68
2017-11-29T02:17:05.023Z,18.72
2017-11-29T02:17:17.670Z,18.72
2017-11-29T02:17:30.337Z,18.72
2017-11-29T02:17:43.473Z,18.72
2017-11-29T02:17:56.621Z,18.75
2017-11-29T02:18:09.287Z,18.71
2017-11-29T02:18:22.403Z,18.69
2017-11-29T02:18:35.033Z,18.65
2017-11-29T02:18:48.142Z,18.65
2017-11-29T02:19:01.271Z,18.69
2017-11-29T02:19:14.423Z,18.68
2017-11-29T02:19:27.600Z,18.65
2017-11-29T02:19:40.791Z,18.69
2017-11-29T02:19:53.869Z,18.61
2017-11-29T02:20:06.058Z,18.68
2017-11-29T02:20:19.184Z,18.71
2017-11-29T02:20:32.286Z,18.71
2017-11-29T02:20:44.925Z,18.65
2017-11-29T02:20:57.570Z,18.69
2017-11-29T02:21:10.209Z,18.69
2017-11-29T02:21:23.367Z,18.68
2017-11-29T02:21:36.516Z,18.66
2017-11-29T02:21:49.668Z,18.63
2017-11-29T02:22:02.798Z,18.69
2017-11-29T02:22:16.129Z,18.61
2017-11-29T02:22:29.235Z,18.65
2017-11-29T02:22:41.906Z,18.68
2017-11-29T02:22:55.003Z,18.65
2017-11-29T02:23:07.159Z,18.65
2017-11-29T02:23:20.265Z,18.63
2017-11-29T02:23:32.422Z,18.66
2017-11-29T02:23:45.092Z,18.65
2017-11-29T02:23:58.199Z,18.63
2017-11-29T02:24:10.862Z,18.65
2017-11-29T02:24:23.950Z,18.72
2017-11-29T02:24:37.047Z,18.71
2017-11-29T02:24:50.184Z,18.68
2017-11-29T02:25:03.311Z,18.68
2017-11-29T02:25:15.971Z,18.69
2017-11-29T02:25:29.191Z,18.66
2017-11-29T02:25:42.328Z,18.68
2017-11-29T02:25:55.523Z,18.65
2017-11-29T02:26:08.630Z,18.65
2017-11-29T02:26:21.716Z,18.66
2017-11-29T02:26:34.803Z,18.61
2017-11-29T02:26:47.947Z,18.63
2017-11-29T02:27:01.092Z,18.66
2017-11-29T02:27:14.162Z,18.61
2017-11-29T02:27:26.804Z,18.69
2017-11-29T02:27:39.513Z,18.63
2017-11-29T02:27:52.137Z,18.63
2017-11-29T02:28:04.849Z,18.65
2017-11-29T02:28:17.947Z,18.66
2017-11-29T02:28:30.594Z,18.63
2017-11-29T02:28:43.284Z,18.63
2017-11-29T02:28:56.424Z,18.63
2017-11-29T02:29:09.116Z,18.61
2017-11-29T02:29:22.283Z,18.54
2017-11-29T02:29:35.384Z,18.59
2017-11-29T02:29:48.034Z,18.65
2017-11-29T02:30:01.191Z,18.63
2017-11-29T02:30:13.427Z,18.6
2017-11-29T02:30:26.621Z,18.56
2017-11-29T02:30:39.298Z,18.68
2017-11-29T02:30:52.426Z,18.57
2017-11-29T02:31:05.645Z,18.63
2017-11-29T02:31:18.692Z,18.59
2017-11-29T02:31:31.846Z,18.59
2017-11-29T02:31:45.053Z,18.68
2017-11-29T02:31:58.214Z,18.63
2017-11-29T02:32:10.833Z,18.63
2017-11-29T02:32:24.231Z,18.63
2017-11-29T02:32:36.408Z,18.65
2017-11-29T02:32:49.502Z,18.61
2017-11-29T02:33:02.145Z,18.51
2017-11-29T02:33:15.255Z,18.61
2017-11-29T02:33:27.933Z,18.63
2017-11-29T02:33:41.086Z,18.56
2017-11-29T02:33:54.248Z,18.61
2017-11-29T02:34:07.406Z,18.66
2017-11-29T02:34:20.621Z,18.57
2017-11-29T02:34:33.786Z,18.65
2017-11-29T02:34:46.394Z,18.57
2017-11-29T02:34:59.083Z,18.56
2017-11-29T02:35:12.214Z,18.63
2017-11-29T02:35:25.329Z,18.68
2017-11-29T02:35:38.430Z,18.53
2017-11-29T02:35:51.608Z,18.59
2017-11-29T02:36:04.725Z,18.56
2017-11-29T02:36:17.883Z,18.61
2017-11-29T02:36:31.023Z,18.63
2017-11-29T02:36:43.713Z,18.61
2017-11-29T02:36:56.910Z,18.59
2017-11-29T02:37:10.044Z,18.65
2017-11-29T02:37:23.920Z,18.6
2017-11-29T02:37:36.605Z,18.65
2017-11-29T02:37:49.212Z,18.61
2017-11-29T02:38:01.866Z,18.63
2017-11-29T02:38:14.512Z,18.71
2017-11-29T02:38:27.649Z,18.69
2017-11-29T02:38:40.836Z,18.65
2017-11-29T02:38:53.455Z,18.66
2017-11-29T02:39:06.599Z,18.65
2017-11-29T02:39:19.737Z,18.68
2017-11-29T02:39:32.894Z,18.68
2017-11-29T02:39:46.054Z,18.65
2017-11-29T02:39:58.193Z,18.57
2017-11-29T02:40:10.826Z,18.63
2017-11-29T02:40:23.963Z,18.63
2017-11-29T02:40:37.109Z,18.66
2017-11-29T02:40:50.186Z,18.65
2017-11-29T02:41:03.312Z,18.66
2017-11-29T02:41:15.989Z,18.57
2017-11-29T02:41:29.126Z,18.63
2017-11-29T02:41:41.755Z,18.71
2017-11-29T02:41:54.893Z,18.57
2017-11-29T02:42:07.986Z,18.6
2017-11-29T02:42:20.176Z,18.54
2017-11-29T02:42:33.392Z,18.57
2017-11-29T02:42:46.594Z,18.59
2017-11-29T02:42:59.750Z,18.63
2017-11-29T02:43:12.906Z,18.53
2017-11-29T02:43:25.536Z,18.66
2017-11-29T02:43:38.226Z,18.6
2017-11-29T02:43:49.954Z,18.65
2017-11-29T02:44:02.628Z,18.61
2017-11-29T02:44:14.829Z,18.6
2017-11-29T02:44:27.948Z,18.59
2017-11-29T02:44:41.083Z,18.65
2017-11-29T02:44:53.794Z,18.59
2017-11-29T02:45:05.974Z,18.57
2017-11-29T02:45:19.126Z,18.54
2017-11-29T02:45:32.256Z,18.54
2017-11-29T02:45:45.405Z,18.56
2017-11-29T02:45:58.543Z,18.59
2017-11-29T02:46:11.627Z,18.61
2017-11-29T02:46:24.303Z,18.65
2017-11-29T02:46:37.386Z,18.56
2017-11-29T02:46:50.021Z,18.56
2017-11-29T02:47:03.166Z,18.56
2017-11-29T02:47:16.347Z,18.56
2017-11-29T02:47:29.471Z,18.61
2017-11-29T02:47:42.559Z,18.59
2017-11-29T02:47:55.667Z,18.5